Marathon, Florida
Current Conditions -  °F | °C
As of 5:53 PM on Tuesday 25 Nov 2014 (Local Time) from KMTH Reporting Station
Clear Clear  
Wind Chill: 80°   Ceiling: Unl
Heat Index: 86°   Visibility: 9mi
Dew Point: 78°   Wind: 5mph
Humidity: 94%   Direction: NA
Pressure: 29.93"   Gusts: NA
Location:  24.73°N, 81.04°W
Report Text: KMTH 252253Z AUTO VRB04KT 9SM CLR 27/26 A2993 RMK AO2 SLP134 T02670256
Loading
Personal Weather Stations






























Interactive Weather Map New forecast layout! Learn more

10-Day Weather Forecast

Advertisements
Track Severe Weather on mobile